Terminal Aerodrome Forecast
Issued by NWS Sterling, VA

Current Version | Previous Version | Text Only | Print | Product List | Glossary On
Versions: 1 2 3 4 5 6 7 8 9 10 11 12 13 14 15 16 17 18 19 20 21
879
FTUS41 KLWX 272128 AAA
TAFBWI
TAF AMD
KBWI 272128Z 2721/2824 23006KT P6SM FEW050
     FM281000 VRB03KT P6SM BKN090
     FM281600 08007KT P6SM VCSH BKN050
     FM282100 11007KT 6SM SHRA BR OVC040=

USA.gov is the U.S. government's official web portal to all federal, state and local government web resources and services.